createdAt,value
2023-04-06T00:01:19.754Z,2.43
2023-04-06T00:03:46.289Z,3.00
2023-04-06T00:06:13.108Z,2.60
2023-04-06T00:08:40.346Z,2.93
2023-04-06T00:11:06.788Z,3.20
2023-04-06T00:13:33.218Z,2.97
2023-04-06T00:16:00.057Z,3.20
2023-04-06T00:18:27.470Z,3.30
2023-04-06T00:20:54.261Z,3.57
2023-04-06T00:23:20.688Z,4.07
2023-04-06T00:25:47.116Z,2.67
2023-04-06T00:28:13.530Z,3.50
2023-04-06T00:30:41.303Z,4.37
2023-04-06T00:33:07.881Z,3.40
2023-04-06T00:35:34.865Z,3.30
2023-04-06T00:38:01.526Z,3.40
2023-04-06T00:40:29.458Z,3.90
2023-04-06T00:42:56.077Z,3.33
2023-04-06T00:45:22.838Z,3.67
2023-04-06T00:47:49.296Z,3.70
2023-04-06T00:50:16.342Z,4.23
2023-04-06T00:52:42.779Z,3.93
2023-04-06T00:55:09.819Z,4.27
2023-04-06T00:57:41.007Z,3.87
2023-04-06T01:00:08.046Z,4.73
2023-04-06T01:02:35.362Z,3.60
2023-04-06T01:05:02.488Z,4.07
2023-04-06T01:07:41.056Z,4.17
2023-04-06T01:10:12.192Z,4.27
2023-04-06T01:12:39.759Z,4.70
2023-04-06T01:15:13.218Z,4.70
2023-04-06T01:17:42.329Z,4.20
2023-04-06T01:20:13.427Z,4.93
2023-04-06T01:22:40.345Z,4.97
2023-04-06T01:25:07.580Z,4.07
2023-04-06T01:27:41.573Z,4.00
2023-04-06T01:30:20.637Z,4.27
2023-04-06T01:32:51.663Z,4.23
2023-04-06T01:35:29.209Z,4.27
2023-04-06T01:38:05.683Z,3.90
2023-04-06T01:40:35.668Z,4.10
2023-04-06T01:43:02.527Z,4.23
2023-04-06T01:45:50.496Z,3.63
2023-04-06T01:48:20.643Z,3.30
2023-04-06T01:50:47.541Z,4.90
2023-04-06T01:53:20.264Z,4.13
2023-04-06T01:55:47.547Z,4.93
2023-04-06T01:58:19.792Z,4.50
2023-04-06T02:00:46.435Z,4.57
2023-04-06T02:03:13.223Z,4.60
2023-04-06T02:05:39.805Z,4.23
2023-04-06T02:08:18.296Z,4.37
2023-04-06T02:10:46.791Z,4.20
2023-04-06T02:13:23.276Z,4.17
2023-04-06T02:15:52.653Z,3.97
2023-04-06T02:18:20.340Z,3.80
2023-04-06T02:20:46.810Z,3.77
2023-04-06T02:23:13.734Z,4.17
2023-04-06T02:25:40.318Z,4.10
2023-04-06T02:28:07.056Z,4.10
2023-04-06T02:30:33.716Z,3.97
2023-04-06T02:33:01.265Z,3.77
2023-04-06T02:35:29.967Z,4.20
2023-04-06T02:37:57.443Z,4.67
2023-04-06T02:40:24.280Z,4.70
2023-04-06T02:42:50.799Z,4.60
2023-04-06T02:45:22.182Z,5.30
2023-04-06T02:47:48.691Z,4.30
2023-04-06T02:50:16.801Z,4.87
2023-04-06T02:52:53.430Z,4.93
2023-04-06T02:55:22.262Z,4.50
2023-04-06T02:57:50.155Z,3.53
2023-04-06T03:00:19.454Z,4.00
2023-04-06T03:02:46.167Z,4.80
2023-04-06T03:05:15.522Z,4.10
2023-04-06T03:07:44.670Z,5.37
2023-04-06T03:10:18.232Z,5.13
2023-04-06T03:12:47.076Z,5.17
2023-04-06T03:15:19.788Z,4.63
2023-04-06T03:17:51.675Z,4.87
2023-04-06T03:20:32.003Z,4.90
2023-04-06T03:22:59.132Z,4.93
2023-04-06T03:25:30.955Z,5.23
2023-04-06T03:28:01.344Z,5.70
2023-04-06T03:30:27.880Z,5.30
2023-04-06T03:32:54.378Z,4.97
2023-04-06T03:35:23.226Z,5.53
2023-04-06T03:37:50.545Z,5.10
2023-04-06T03:40:17.149Z,4.57
2023-04-06T03:42:43.568Z,4.93
2023-04-06T03:45:14.887Z,4.87
2023-04-06T03:47:46.766Z,4.87
2023-04-06T03:50:14.032Z,5.33
2023-04-06T03:52:40.539Z,4.60
2023-04-06T03:55:07.353Z,5.07
2023-04-06T03:57:36.568Z,5.03
2023-04-06T04:00:03.205Z,4.70
2023-04-06T04:02:39.366Z,4.70
2023-04-06T04:05:06.187Z,4.70
2023-04-06T04:07:32.600Z,4.40
2023-04-06T04:10:00.548Z,5.13
2023-04-06T04:12:27.101Z,4.30
2023-04-06T04:14:53.870Z,4.70
2023-04-06T04:17:20.502Z,5.10
2023-04-06T04:19:47.222Z,4.70
2023-04-06T04:22:14.820Z,4.57
2023-04-06T04:24:42.451Z,5.20
2023-04-06T04:27:09.634Z,4.53
2023-04-06T04:29:36.308Z,5.57
2023-04-06T04:32:07.722Z,5.30
2023-04-06T04:34:35.223Z,5.40
2023-04-06T04:37:02.794Z,4.27
2023-04-06T04:39:43.351Z,4.90
2023-04-06T04:42:09.962Z,4.63
2023-04-06T04:44:41.832Z,4.97
2023-04-06T04:47:09.118Z,5.17
2023-04-06T04:49:43.851Z,4.93
2023-04-06T04:52:13.170Z,4.47
2023-04-06T04:54:49.373Z,4.67
2023-04-06T04:57:23.699Z,5.30
2023-04-06T04:59:51.755Z,5.57
2023-04-06T05:02:19.860Z,5.60
2023-04-06T05:05:00.980Z,4.57
2023-04-06T05:07:28.746Z,5.13
2023-04-06T05:09:57.588Z,4.80
2023-04-06T05:12:28.163Z,5.43
2023-04-06T05:15:03.894Z,4.63
2023-04-06T05:17:30.702Z,4.60
2023-04-06T05:19:57.703Z,4.80
2023-04-06T05:22:26.230Z,4.30
2023-04-06T05:25:06.461Z,4.63
2023-04-06T05:27:33.564Z,4.70
2023-04-06T05:30:05.040Z,4.47
2023-04-06T05:32:36.545Z,4.23
2023-04-06T05:35:03.290Z,4.10
2023-04-06T05:37:30.027Z,4.07
2023-04-06T05:39:57.309Z,4.27
2023-04-06T05:42:23.972Z,4.30
2023-04-06T05:44:57.499Z,4.03
2023-04-06T05:47:23.988Z,4.30
2023-04-06T05:50:02.671Z,4.17
2023-04-06T05:52:35.631Z,3.60
2023-04-06T05:55:03.267Z,4.80
2023-04-06T05:57:31.037Z,4.20
2023-04-06T05:59:58.184Z,4.00
2023-04-06T06:02:28.429Z,4.73
2023-04-06T06:04:56.548Z,4.20
2023-04-06T06:07:24.630Z,4.37
2023-04-06T06:09:58.980Z,4.00
2023-04-06T06:12:31.012Z,4.20
2023-04-06T06:14:58.567Z,4.30
2023-04-06T06:17:27.236Z,4.20
2023-04-06T06:19:53.720Z,4.03
2023-04-06T06:22:20.253Z,4.43
2023-04-06T06:24:47.601Z,4.00
2023-04-06T06:27:16.653Z,4.67
2023-04-06T06:29:43.340Z,4.17
2023-04-06T06:32:11.203Z,3.67
2023-04-06T06:34:39.047Z,4.27
2023-04-06T06:37:07.663Z,4.50
2023-04-06T06:39:36.730Z,4.00
2023-04-06T06:42:03.413Z,4.77
2023-04-06T06:44:45.981Z,4.00
2023-04-06T06:47:12.396Z,4.00
2023-04-06T06:49:39.269Z,4.10
2023-04-06T06:52:05.955Z,4.37
2023-04-06T06:54:32.589Z,4.13
2023-04-06T06:56:59.122Z,4.30
2023-04-06T06:59:26.289Z,4.33
2023-04-06T07:01:53.244Z,4.00
2023-04-06T07:04:20.843Z,4.40
2023-04-06T07:06:47.406Z,4.43
2023-04-06T07:09:14.260Z,4.23
2023-04-06T07:11:41.048Z,4.17
2023-04-06T07:14:07.796Z,5.80
2023-04-06T07:16:35.079Z,4.10
2023-04-06T07:19:01.545Z,5.90
2023-04-06T07:21:28.260Z,5.07
2023-04-06T07:23:55.901Z,4.57
2023-04-06T07:26:22.290Z,4.93
2023-04-06T07:28:48.666Z,4.47
2023-04-06T07:31:15.213Z,4.77
2023-04-06T07:33:41.665Z,4.40
2023-04-06T07:36:08.221Z,4.43
2023-04-06T07:38:35.122Z,4.43
2023-04-06T07:41:03.992Z,4.17
2023-04-06T07:43:31.698Z,4.63
2023-04-06T07:45:58.387Z,4.30
2023-04-06T07:48:24.885Z,4.57
2023-04-06T07:50:51.424Z,4.87
2023-04-06T07:53:18.277Z,4.83
2023-04-06T07:55:46.560Z,4.13
2023-04-06T07:58:12.947Z,4.50
2023-04-06T08:00:39.435Z,4.37
2023-04-06T08:03:06.134Z,4.60
2023-04-06T08:05:32.608Z,5.10
2023-04-06T08:07:59.396Z,4.50
2023-04-06T08:10:25.836Z,5.20
2023-04-06T08:12:52.877Z,4.60
2023-04-06T08:15:19.311Z,4.50
2023-04-06T08:17:45.870Z,4.40
2023-04-06T08:20:12.372Z,4.77
2023-04-06T08:22:39.164Z,4.73
2023-04-06T08:25:05.738Z,4.57
2023-04-06T08:27:32.497Z,4.80
2023-04-06T08:29:58.929Z,5.00
2023-04-06T08:32:26.434Z,4.57
2023-04-06T08:34:56.570Z,5.23
2023-04-06T08:37:24.196Z,4.63
2023-04-06T08:39:50.581Z,4.63
2023-04-06T08:42:26.327Z,4.97
2023-04-06T08:44:53.288Z,5.07
2023-04-06T08:47:23.091Z,5.30
2023-04-06T08:49:51.760Z,5.40
2023-04-06T08:52:21.002Z,4.90
2023-04-06T08:54:48.347Z,4.70
2023-04-06T08:57:15.157Z,4.60
2023-04-06T08:59:42.073Z,4.70
2023-04-06T09:02:16.509Z,4.87
2023-04-06T09:04:43.224Z,5.00
2023-04-06T09:07:09.711Z,4.50
2023-04-06T09:09:36.828Z,4.70
2023-04-06T09:12:06.784Z,4.77
2023-04-06T09:14:37.061Z,4.43
2023-04-06T09:17:03.607Z,5.20
2023-04-06T09:19:30.139Z,4.87
2023-04-06T09:22:05.904Z,5.20
2023-04-06T09:24:45.434Z,5.43
2023-04-06T09:27:11.969Z,4.90
2023-04-06T09:29:38.789Z,4.83
2023-04-06T09:32:06.478Z,5.43
2023-04-06T09:34:33.601Z,5.27
2023-04-06T09:37:00.505Z,5.30
2023-04-06T09:39:27.494Z,5.90
2023-04-06T09:41:58.047Z,5.27
2023-04-06T09:44:24.991Z,5.50
2023-04-06T09:47:00.506Z,5.80
2023-04-06T09:49:32.163Z,5.30
2023-04-06T09:52:00.735Z,5.50
2023-04-06T09:54:30.501Z,5.93
2023-04-06T09:56:59.661Z,5.90
2023-04-06T09:59:44.894Z,5.70
2023-04-06T10:02:16.575Z,6.07
2023-04-06T10:04:57.125Z,6.33
2023-04-06T10:07:23.649Z,5.27
2023-04-06T10:09:50.277Z,6.30
2023-04-06T10:12:17.038Z,5.93
2023-04-06T10:14:43.759Z,6.27
2023-04-06T10:17:10.510Z,5.93
2023-04-06T10:19:43.917Z,5.57
2023-04-06T10:22:13.168Z,7.03
2023-04-06T10:24:39.702Z,5.90
2023-04-06T10:27:07.451Z,6.90
2023-04-06T10:29:46.538Z,6.37
2023-04-06T10:32:13.389Z,6.73
2023-04-06T10:34:40.292Z,7.70
2023-04-06T10:37:16.366Z,6.97
2023-04-06T10:39:56.398Z,6.57
2023-04-06T10:42:26.513Z,6.53
2023-04-06T10:44:53.648Z,6.87
2023-04-06T10:47:20.873Z,7.07
2023-04-06T10:49:47.426Z,6.73
2023-04-06T10:52:14.120Z,7.77
2023-04-06T10:54:42.952Z,6.53
2023-04-06T10:57:09.781Z,6.37
2023-04-06T10:59:36.800Z,7.43
2023-04-06T11:02:03.313Z,7.03
2023-04-06T11:04:30.356Z,7.23
2023-04-06T11:06:57.215Z,6.73
2023-04-06T11:09:24.313Z,6.50
2023-04-06T11:11:50.656Z,6.67
2023-04-06T11:14:17.062Z,8.30
2023-04-06T11:16:43.686Z,7.20
2023-04-06T11:19:10.851Z,6.10
2023-04-06T11:21:40.295Z,6.27
2023-04-06T11:24:16.077Z,6.97
2023-04-06T11:26:42.670Z,8.07
2023-04-06T11:29:09.182Z,7.70
2023-04-06T11:31:39.819Z,7.53
2023-04-06T11:34:12.881Z,7.83
2023-04-06T11:36:42.779Z,7.47
2023-04-06T11:39:09.872Z,7.10
2023-04-06T11:41:36.909Z,6.57
2023-04-06T11:44:06.044Z,6.03
2023-04-06T11:46:32.849Z,6.63
2023-04-06T11:49:01.110Z,7.27
2023-04-06T11:51:27.924Z,6.10
2023-04-06T11:53:54.901Z,6.97
2023-04-06T11:56:26.241Z,6.57
2023-04-06T11:58:53.184Z,7.27
2023-04-06T12:01:19.613Z,7.60
2023-04-06T12:03:46.774Z,6.40
2023-04-06T12:06:13.353Z,6.67
2023-04-06T12:08:39.949Z,6.43
2023-04-06T12:11:06.577Z,6.40
2023-04-06T12:13:33.317Z,7.20
2023-04-06T12:15:59.735Z,7.00
2023-04-06T12:18:26.557Z,6.90
2023-04-06T12:20:53.391Z,6.87
2023-04-06T12:23:20.274Z,6.33
2023-04-06T12:25:47.142Z,6.60
2023-04-06T12:28:13.602Z,7.07
2023-04-06T12:30:42.109Z,6.23
2023-04-06T12:33:08.637Z,6.30
2023-04-06T12:35:36.006Z,6.20
2023-04-06T12:38:02.829Z,6.57
2023-04-06T12:40:29.537Z,6.20
2023-04-06T12:42:56.164Z,5.87
2023-04-06T12:45:22.589Z,5.83
2023-04-06T12:47:49.311Z,6.23
2023-04-06T12:50:16.066Z,7.30
2023-04-06T12:52:42.514Z,6.57
2023-04-06T12:55:09.121Z,6.87
2023-04-06T12:57:35.773Z,6.87
2023-04-06T13:00:02.971Z,5.67
2023-04-06T13:02:30.815Z,6.77
2023-04-06T13:04:57.732Z,6.20
2023-04-06T13:07:24.133Z,6.03
2023-04-06T13:09:50.637Z,5.50
2023-04-06T13:12:17.063Z,6.40
2023-04-06T13:14:43.539Z,5.93
2023-04-06T13:17:09.917Z,5.30
2023-04-06T13:19:37.069Z,5.87
2023-04-06T13:22:03.459Z,6.67
2023-04-06T13:24:30.169Z,7.67
2023-04-06T13:26:56.772Z,7.00
2023-04-06T13:29:23.211Z,5.50
2023-04-06T13:31:49.644Z,7.23
2023-04-06T13:34:16.246Z,6.27
2023-04-06T13:36:44.147Z,7.20
2023-04-06T13:39:10.562Z,6.53
2023-04-06T13:41:37.419Z,6.20
2023-04-06T13:44:03.805Z,7.00
2023-04-06T13:46:30.364Z,7.17
2023-04-06T13:48:56.970Z,6.70
2023-04-06T13:51:23.410Z,7.87
2023-04-06T13:53:53.456Z,6.13
2023-04-06T13:56:20.641Z,7.53
2023-04-06T13:58:47.058Z,6.70
2023-04-06T14:01:13.575Z,7.63
2023-04-06T14:03:46.772Z,7.30
2023-04-06T14:06:29.839Z,7.37
2023-04-06T14:08:58.516Z,6.67
2023-04-06T14:11:25.028Z,6.93
2023-04-06T14:13:51.595Z,7.20
2023-04-06T14:16:20.530Z,7.53
2023-04-06T14:18:47.304Z,7.73
2023-04-06T14:21:13.737Z,6.80
2023-04-06T14:23:40.725Z,7.07
2023-04-06T14:26:08.211Z,7.27
2023-04-06T14:28:35.570Z,8.27
2023-04-06T14:31:03.967Z,7.80
2023-04-06T14:33:31.132Z,6.40
2023-04-06T14:35:57.551Z,8.40
2023-04-06T14:38:24.044Z,7.77
2023-04-06T14:40:50.936Z,7.47
2023-04-06T14:43:17.458Z,7.53
2023-04-06T14:45:44.801Z,7.27
2023-04-06T14:48:13.135Z,8.33
2023-04-06T14:50:40.448Z,6.43
2023-04-06T14:53:06.886Z,6.40
2023-04-06T14:55:33.472Z,7.60
2023-04-06T14:58:00.303Z,6.73
2023-04-06T15:00:26.779Z,7.00
2023-04-06T15:02:53.278Z,7.43
2023-04-06T15:05:19.795Z,7.33
2023-04-06T15:07:46.287Z,6.73
2023-04-06T15:10:12.833Z,6.43
2023-04-06T15:12:39.382Z,7.30
2023-04-06T15:15:06.210Z,7.00
2023-04-06T15:17:32.791Z,7.23
2023-04-06T15:19:59.272Z,6.67
2023-04-06T15:22:25.801Z,6.60
2023-04-06T15:24:52.281Z,6.20
2023-04-06T15:27:18.792Z,6.07
2023-04-06T15:29:46.151Z,6.97
2023-04-06T15:32:13.267Z,7.40
2023-04-06T15:34:39.738Z,7.40
2023-04-06T15:37:06.589Z,6.73
2023-04-06T15:39:34.151Z,7.50
2023-04-06T15:42:01.097Z,7.00
2023-04-06T15:44:27.517Z,7.23
2023-04-06T15:46:54.053Z,9.53
2023-04-06T15:49:21.005Z,8.43
2023-04-06T15:51:48.290Z,8.03
2023-04-06T15:54:15.889Z,7.70
2023-04-06T15:56:43.044Z,8.30
2023-04-06T15:59:09.587Z,8.20
2023-04-06T16:01:36.173Z,6.73
2023-04-06T16:04:03.207Z,7.50
2023-04-06T16:06:29.775Z,6.70
2023-04-06T16:08:56.174Z,6.73
2023-04-06T16:11:22.819Z,7.47
2023-04-06T16:13:54.893Z,8.80
2023-04-06T16:16:21.999Z,9.27
2023-04-06T16:18:48.487Z,8.10
2023-04-06T16:21:16.646Z,8.60
2023-04-06T16:23:43.117Z,7.37
2023-04-06T16:26:13.682Z,7.10
2023-04-06T16:28:40.765Z,7.10
2023-04-06T16:31:07.204Z,7.30
2023-04-06T16:33:34.315Z,8.17
2023-04-06T16:36:01.351Z,7.40
2023-04-06T16:38:34.167Z,6.90
2023-04-06T16:41:02.064Z,8.30
2023-04-06T16:43:28.653Z,7.10
2023-04-06T16:45:55.361Z,7.93
2023-04-06T16:48:21.946Z,7.00
2023-04-06T16:50:48.420Z,7.03
2023-04-06T16:53:14.975Z,8.13
2023-04-06T16:55:43.280Z,8.13
2023-04-06T16:58:09.693Z,7.03
2023-04-06T17:00:39.885Z,6.90
2023-04-06T17:03:06.682Z,9.90
2023-04-06T17:05:34.743Z,11.00
2023-04-06T17:08:01.460Z,10.20
2023-04-06T17:10:33.764Z,9.57
2023-04-06T17:13:03.979Z,8.93
2023-04-06T17:15:31.998Z,13.00
2023-04-06T17:17:58.796Z,7.23
2023-04-06T17:20:25.494Z,9.67
2023-04-06T17:22:52.215Z,7.93
2023-04-06T17:25:19.009Z,7.60
2023-04-06T17:27:45.834Z,9.67
2023-04-06T17:30:12.682Z,8.23
2023-04-06T17:32:39.662Z,7.70
2023-04-06T17:35:06.303Z,6.97
2023-04-06T17:37:33.046Z,7.10
2023-04-06T17:39:59.862Z,7.73
2023-04-06T17:42:26.997Z,7.00
2023-04-06T17:44:53.683Z,7.40
2023-04-06T17:47:20.718Z,7.23
2023-04-06T17:49:47.236Z,6.23
2023-04-06T17:52:13.757Z,6.70
2023-04-06T17:54:40.367Z,7.13
2023-04-06T17:57:07.776Z,6.97
2023-04-06T17:59:35.160Z,6.57
2023-04-06T18:02:04.006Z,6.97
2023-04-06T18:04:30.459Z,6.63
2023-04-06T18:06:57.157Z,6.90
2023-04-06T18:09:23.680Z,6.67
2023-04-06T18:11:50.335Z,5.30
2023-04-06T18:14:16.899Z,6.77
2023-04-06T18:16:43.404Z,6.50
2023-04-06T18:19:10.928Z,6.80
2023-04-06T18:21:37.347Z,5.67
2023-04-06T18:24:05.440Z,6.60
2023-04-06T18:26:33.747Z,5.63
2023-04-06T18:29:00.909Z,5.80
2023-04-06T18:31:27.560Z,6.30
2023-04-06T18:33:54.773Z,5.97
2023-04-06T18:36:21.531Z,6.20
2023-04-06T18:38:48.408Z,7.63
2023-04-06T18:41:15.513Z,8.80
2023-04-06T18:43:41.973Z,9.20
2023-04-06T18:46:13.069Z,8.73
2023-04-06T18:48:40.329Z,7.87
2023-04-06T18:51:07.129Z,6.33
2023-04-06T18:53:33.801Z,6.43
2023-04-06T18:56:01.098Z,6.30
2023-04-06T18:58:29.429Z,6.00
2023-04-06T19:00:59.121Z,5.60
2023-04-06T19:03:26.423Z,6.13
2023-04-06T19:05:52.974Z,5.80
2023-04-06T19:08:19.394Z,6.00
2023-04-06T19:10:46.610Z,5.30
2023-04-06T19:13:13.037Z,4.80
2023-04-06T19:15:41.269Z,5.47
2023-04-06T19:18:07.706Z,5.53
2023-04-06T19:20:35.009Z,6.07
2023-04-06T19:23:02.915Z,6.23
2023-04-06T19:25:29.951Z,6.27
2023-04-06T19:27:56.565Z,6.10
2023-04-06T19:33:08.769Z,6.00
2023-04-06T19:35:36.118Z,5.97
2023-04-06T19:38:02.606Z,5.90
2023-04-06T19:40:29.473Z,7.33
2023-04-06T19:42:55.864Z,7.00
2023-04-06T19:45:22.378Z,8.13
2023-04-06T19:47:49.036Z,7.40
2023-04-06T19:50:15.610Z,8.67
2023-04-06T19:52:42.058Z,8.30
2023-04-06T19:55:08.692Z,7.23
2023-04-06T19:57:35.221Z,8.37
2023-04-06T20:00:01.702Z,12.03
2023-04-06T20:02:36.684Z,9.87
2023-04-06T20:05:03.613Z,8.10
2023-04-06T20:07:30.229Z,7.70
2023-04-06T20:09:57.009Z,7.30
2023-04-06T20:12:23.979Z,7.20
2023-04-06T20:14:51.029Z,6.67
2023-04-06T20:17:21.913Z,6.73
2023-04-06T20:19:49.695Z,6.53
2023-04-06T20:22:16.381Z,7.60
2023-04-06T20:24:42.817Z,8.23
2023-04-06T20:27:10.952Z,8.20
2023-04-06T20:29:37.525Z,7.73
2023-04-06T20:32:04.078Z,7.03
2023-04-06T20:34:30.542Z,8.43
2023-04-06T20:36:58.045Z,7.73
2023-04-06T20:39:27.194Z,6.67
2023-04-06T20:41:53.726Z,9.20
2023-04-06T20:44:21.649Z,7.93
2023-04-06T20:46:48.745Z,8.63
2023-04-06T20:49:15.741Z,8.67
2023-04-06T20:51:42.526Z,8.00
2023-04-06T20:54:09.129Z,7.30
2023-04-06T20:56:35.689Z,7.60
2023-04-06T20:59:04.708Z,7.10
2023-04-06T21:01:50.244Z,7.90
2023-04-06T21:04:18.466Z,6.97
2023-04-06T21:06:45.682Z,7.63
2023-04-06T21:09:12.895Z,7.67
2023-04-06T21:11:39.875Z,7.10
2023-04-06T21:14:06.414Z,6.10
2023-04-06T21:16:36.876Z,7.80
2023-04-06T21:19:03.299Z,8.53
2023-04-06T21:21:29.859Z,6.80
2023-04-06T21:23:58.198Z,8.07
2023-04-06T21:26:25.378Z,6.50
2023-04-06T21:28:51.813Z,7.60
2023-04-06T21:31:21.916Z,7.87
2023-04-06T21:33:48.855Z,7.40
2023-04-06T21:36:15.888Z,7.67
2023-04-06T21:38:42.267Z,7.53
2023-04-06T21:41:08.708Z,7.03
2023-04-06T21:43:35.735Z,7.40
2023-04-06T21:46:05.181Z,6.33
2023-04-06T21:48:32.024Z,6.40
2023-04-06T21:51:01.534Z,8.37
2023-04-06T21:53:28.998Z,7.13
2023-04-06T21:55:55.877Z,7.80
2023-04-06T21:58:22.462Z,7.40
2023-04-06T22:03:34.149Z,8.90
2023-04-06T22:06:03.038Z,7.87
2023-04-06T22:08:33.667Z,7.30
2023-04-06T22:11:03.706Z,7.87
2023-04-06T22:13:30.565Z,7.50
2023-04-06T22:15:57.392Z,7.60
2023-04-06T22:18:23.886Z,7.67
2023-04-06T22:20:53.438Z,8.07
2023-04-06T22:23:20.980Z,7.27
2023-04-06T22:25:47.987Z,7.50
2023-04-06T22:28:14.415Z,7.17
2023-04-06T22:30:40.992Z,7.00
2023-04-06T22:33:07.771Z,7.27
2023-04-06T22:35:34.388Z,8.10
2023-04-06T22:38:01.279Z,7.23
2023-04-06T22:40:28.012Z,7.67
2023-04-06T22:42:55.123Z,7.47
2023-04-06T22:45:21.567Z,7.33
2023-04-06T22:47:48.041Z,7.90
2023-04-06T22:50:16.249Z,7.60
2023-04-06T22:52:42.791Z,8.47
2023-04-06T22:55:09.366Z,7.97
2023-04-06T22:57:36.248Z,7.60
2023-04-06T23:00:05.476Z,7.80
2023-04-06T23:02:32.268Z,8.73
2023-04-06T23:04:58.857Z,8.13
2023-04-06T23:07:26.390Z,7.53
2023-04-06T23:09:52.818Z,7.37
2023-04-06T23:12:20.011Z,7.67
2023-04-06T23:14:47.330Z,7.30
2023-04-06T23:17:16.011Z,6.90
2023-04-06T23:19:43.379Z,7.80
2023-04-06T23:22:09.804Z,7.37
2023-04-06T23:24:36.847Z,7.77
2023-04-06T23:27:03.518Z,7.97
2023-04-06T23:29:30.049Z,7.00
2023-04-06T23:31:56.567Z,7.63
2023-04-06T23:34:23.484Z,8.23
2023-04-06T23:36:49.969Z,8.00
2023-04-06T23:39:17.335Z,7.53
2023-04-06T23:41:44.537Z,7.90
2023-04-06T23:44:10.950Z,6.90
2023-04-06T23:46:37.430Z,7.50
2023-04-06T23:49:03.874Z,7.37
2023-04-06T23:51:30.286Z,8.17
2023-04-06T23:53:57.916Z,7.90
2023-04-06T23:56:24.765Z,8.00
2023-04-06T23:58:51.717Z,7.67
